Terminal Aerodrome Forecast
Issued by NWS Paducah, KY

Home | Current Version | Previous Version | Text Only | Print | Product List | Glossary On
Versions: 1 2 3 4 5 6 7 8 9 10 11 12 13 14 15 16 17 18 19 20 21 22 23 24
000
FTUS43 KPAH 170520
TAFEVV
TAF
KEVV 170520Z 1706/1806 VRB02KT P6SM SCT250
      TEMPO 1710/1712 5SM BR
     FM171500 17004KT P6SM SCT045 BKN250
     FM180000 VRB02KT P6SM BKN050=

USA.gov is the U.S. government's official web portal to all federal, state and local government web resources and services.